Hyannis, MA (02601)

11:55 PM EDT on September 03, 2015 (GMT -0400)
Cape Air EDC Building | | Change Station
CLOSE
Current Station
Personal Weather Station
Location: Hyannis, MA
Elevation: 49 ft
Nearby Weather Stations

Elev 49 ft 41.67 °N, 70.29 °W | Updated 13 seconds ago

Clear
Clear
72.0 °F
Feels Like 72.0 °F
N
0.0
Wind Variable Wind from NNW
Gusts 0.0 mph

Today
High -- | Low -- °F
--% Chance of Precip.
Yesterday
High -- | Low -- °F
Precip. -- in
6:08 AM 7:11 PM
Waning Gibbous, 64% visible
Pressure 29.90 in
Visibility 6.0 miles
Clouds Clear
Dew Point 69 °F
Humidity 90%
Rainfall 0.00 in
Snow Depth Not available.
UV 0 out of 12
Pollen 7.90 out of 12
Air Quality Not available.
Flu Activity Not available.
METAR KHYA 040256Z AUTO 00000KT 6SM BR CLR 21/19 A2989 RMK AO2 SLP123 T02110194 51014
Pressure 29.90 in
Visibility 6.0 miles
Clouds Clear
Dew Point 69 °F
Humidity 90%
Rainfall 0.00 in
Snow Depth Not available.
UV 0 out of 12
Pollen 7.90 out of 12
Air Quality Not available.
Flu Activity Not available.
METAR KHYA 040256Z AUTO 00000KT 6SM BR CLR 21/19 A2989 RMK AO2 SLP123 T02110194 51014

10-Day Weather Forecast

×

Almanac

Astronomy

Sep. 03, 2015 Rise Set
Actual Time
Civil Twilight
Nautical Twilight
Astronomical Twilight
Moon
Length of Visible Light
Length of Day
Tomorrow will be .
, % of the Moon is Illuminated

Today's Extremes

State Highs State Lows

Community

WunderPhotos

Upload Photos

1,852,118 photos uploaded!

WunderBlogs® & News

Nearby

Air Quality

  Air Quality AQ Index Pollutant
Not available.

Snow Depth

Station Depth Elevation

Earthquake Activity

City Distance Mag. Time & Date
Minimum magnitude displayed is 2.5.

Coastal Water Temperatures

Place Temperature

Stations

Nearby Weather Stations

Station Location Temp. Windchill Dew Point Humidity Wind Precip. Elev Updated Type